Time;durP1;ratioP1;P1;durP2;ratioP2;P2;SDS_P1;SDS_P2;PMS_P1;PMS_P2;Temp;Humidity;BMP_temperature;BMP_pressure;BME280_temperature;BME280_humidity;BME280_pressure;Samples;Min_cycle;Max_cycle;Signal;HPM_P1;HPM_P2
2022/02/07 00:02:23;;;;;;;2.70;0.30;;;;;;;4.53;76.97;98263.48;106684;1276;22775;-78
2022/02/07 00:04:51;;;;;;;1.60;0.40;;;;;;;4.54;76.92;98263.10;106256;1276;23998;-78
2022/02/07 00:07:20;;;;;;;3.00;0.40;;;;;;;4.56;76.83;98254.59;106444;1276;22625;-79
2022/02/07 00:09:48;;;;;;;2.20;0.30;;;;;;;4.60;76.80;98245.47;106286;1275;23146;-78
2022/02/07 00:12:16;;;;;;;1.50;0.30;;;;;;;4.63;76.71;98239.83;106117;1274;22550;-78
2022/02/07 00:14:45;;;;;;;3.30;0.40;;;;;;;4.66;76.60;98241.77;106314;1276;22863;-79
2022/02/07 00:17:13;;;;;;;4.00;0.30;;;;;;;4.69;76.55;98240.70;106118;1276;25235;-78
2022/02/07 00:19:42;;;;;;;2.50;0.30;;;;;;;4.70;76.46;98240.30;106379;1274;23116;-79
2022/02/07 00:22:10;;;;;;;2.10;0.30;;;;;;;4.71;76.45;98237.66;106244;1276;22601;-79
2022/02/07 00:24:38;;;;;;;2.20;0.10;;;;;;;4.70;76.31;98232.81;106420;1276;22709;-78
2022/02/07 00:27:07;;;;;;;3.40;0.40;;;;;;;4.69;76.29;98233.27;106406;1276;22549;-80
2022/02/07 00:29:35;;;;;;;1.70;0.40;;;;;;;4.68;76.26;98228.34;106114;1276;24265;-80
2022/02/07 00:32:04;;;;;;;2.90;0.50;;;;;;;4.66;76.20;98226.10;106202;1276;22655;-79
2022/02/07 00:34:34;;;;;;;5.30;0.50;;;;;;;4.64;76.21;98220.05;106133;1276;22596;-78
2022/02/07 00:37:05;;;;;;;4.00;0.40;;;;;;;4.63;76.14;98213.81;106349;1276;22701;-79
2022/02/07 00:39:42;;;;;;;4.30;0.80;;;;;;;4.62;76.10;98208.86;106502;1276;22633;-79
2022/02/07 00:42:20;;;;;;;2.20;0.40;;;;;;;4.59;76.06;98213.51;106472;1275;22648;-80
2022/02/07 00:44:49;;;;;;;3.30;0.40;;;;;;;4.58;76.14;98213.09;106522;1276;25195;-79
2022/02/07 00:47:18;;;;;;;3.10;0.50;;;;;;;4.57;76.08;98212.44;106524;1276;25164;-79
2022/02/07 00:49:46;;;;;;;3.20;0.40;;;;;;;4.57;76.08;98217.75;106505;1274;24300;-80
2022/02/07 00:52:14;;;;;;;3.20;0.40;;;;;;;4.55;76.12;98213.98;106359;1276;22544;-79
2022/02/07 00:54:42;;;;;;;2.20;0.40;;;;;;;4.56;76.14;98218.26;106381;1276;22635;-79
2022/02/07 00:57:11;;;;;;;2.40;0.50;;;;;;;4.57;76.14;98220.97;106309;1274;22673;-78
2022/02/07 00:59:43;;;;;;;4.00;0.80;;;;;;;4.57;76.11;98224.39;106799;1263;85811;-58
2022/02/07 01:02:11;;;;;;;4.10;0.60;;;;;;;4.56;76.24;98222.79;106439;1271;22710;-61
2022/02/07 01:04:39;;;;;;;4.10;0.70;;;;;;;4.57;76.30;98219.97;106391;1271;22525;-59
2022/02/07 01:07:09;;;;;;;7.70;1.60;;;;;;;4.58;76.36;98208.98;106440;1272;25387;-60
2022/02/07 01:09:42;;;;;;;8.70;1.10;;;;;;;4.57;76.38;98208.27;108850;1270;22568;-60
2022/02/07 01:12:19;;;;;;;7.50;1.00;;;;;;;4.57;76.32;98206.30;109692;1273;22482;-61
2022/02/07 01:14:59;;;;;;;5.80;0.90;;;;;;;4.58;76.37;98198.77;109860;1270;22401;-61
2022/02/07 01:20:31;;;;;;;12.50;2.40;;;;;;;4.60;76.40;98187.34;109818;1270;22406;-62
2022/02/07 01:51:11;;;;;;;8.00;1.10;;;;;;;4.60;76.24;98168.30;106042;1276;22538;-61
2022/02/07 01:53:51;;;;;;;7.30;1.10;;;;;;;4.59;76.20;98173.16;106000;1276;24324;-58
2022/02/07 01:56:28;;;;;;;6.80;1.00;;;;;;;4.56;76.23;98178.50;106057;1276;22490;-59
2022/02/07 01:59:06;;;;;;;6.50;0.90;;;;;;;4.52;76.14;98179.08;105998;1276;26356;-60
2022/02/07 02:01:37;;;;;;;8.60;1.40;;;;;;;4.50;76.20;98178.77;106028;1276;23803;-59
2022/02/07 02:04:07;;;;;;;8.30;1.10;;;;;;;4.48;76.22;98175.52;105946;1276;22547;-60
2022/02/07 02:06:37;;;;;;;5.80;1.10;;;;;;;4.47;76.28;98174.70;106006;1276;23099;-58
2022/02/07 02:09:06;;;;;;;6.40;1.30;;;;;;;4.45;76.24;98173.63;106050;1276;22572;-60
2022/02/07 02:11:37;;;;;;;5.60;1.10;;;;;;;4.43;76.22;98170.25;106033;1276;22857;-61
2022/02/07 02:14:22;;;;;;;5.40;1.00;;;;;;;4.36;76.13;98168.77;105963;1276;22627;-60
2022/02/07 02:17:15;;;;;;;5.20;0.90;;;;;;;4.32;76.26;98167.71;106075;1276;22726;-59
2022/02/07 02:36:54;;;;;;;8.00;1.00;;;;;;;4.15;76.47;98172.16;106076;1276;24230;-61
2022/02/07 02:47:43;;;;;;;6.30;0.70;;;;;;;4.07;77.08;98181.38;106070;1276;22541;-58
2022/02/07 02:50:27;;;;;;;5.30;0.70;;;;;;;4.06;77.27;98194.75;106095;1276;23996;-59
2022/02/07 02:52:58;;;;;;;2.90;0.50;;;;;;;4.05;77.50;98213.22;106050;1276;24336;-57
2022/02/07 02:55:26;;;;;;;2.30;0.40;;;;;;;4.01;78.03;98220.85;106096;1276;22717;-57
2022/02/07 02:57:55;;;;;;;3.90;0.30;;;;;;;4.00;78.28;98221.58;106116;1276;22800;-57
2022/02/07 03:00:25;;;;;;;2.70;0.30;;;;;;;3.99;78.40;98229.72;106257;1271;26588;-60
2022/02/07 03:02:53;;;;;;;1.50;0.20;;;;;;;3.98;78.71;98229.70;106608;1271;22536;-57
2022/02/07 03:05:22;;;;;;;1.10;0.20;;;;;;;3.97;78.74;98242.19;106609;1271;24278;-58
2022/02/07 03:07:50;;;;;;;0.60;0.10;;;;;;;3.95;78.74;98257.46;106400;1271;22580;-60
2022/02/07 03:10:25;;;;;;;1.90;0.20;;;;;;;3.95;78.79;98265.54;106343;1271;22553;-58
2022/02/07 03:13:08;;;;;;;2.30;0.20;;;;;;;3.94;78.83;98273.02;106329;1270;24252;-59
2022/02/07 03:18:24;;;;;;;1.40;0.10;;;;;;;3.89;79.22;98280.38;106395;1271;24332;-58
2022/02/07 03:20:54;;;;;;;2.40;0.10;;;;;;;3.87;79.24;98275.29;106459;1271;25423;-58
2022/02/07 03:23:23;;;;;;;1.10;0.20;;;;;;;3.85;79.22;98291.61;106459;1270;24212;-58
2022/02/07 03:25:52;;;;;;;1.10;0.10;;;;;;;3.82;79.24;98296.56;106497;1270;25476;-61
2022/02/07 03:28:22;;;;;;;0.80;0.10;;;;;;;3.79;79.39;98300.94;106498;1270;26750;-60
2022/02/07 03:30:52;;;;;;;0.90;0.10;;;;;;;3.75;79.21;98311.73;106518;1270;22626;-59
2022/02/07 03:33:21;;;;;;;3.80;0.20;;;;;;;3.72;79.30;98323.33;106522;1270;25248;-58
2022/02/07 03:35:49;;;;;;;3.10;0.20;;;;;;;3.68;79.11;98322.27;106698;1271;22746;-58
2022/02/07 03:38:18;;;;;;;2.00;0.10;;;;;;;3.65;79.06;98319.86;106364;1270;22551;-59
2022/02/07 03:40:47;;;;;;;3.60;0.30;;;;;;;3.63;79.04;98323.48;106452;1270;25386;-59
2022/02/07 03:43:16;;;;;;;1.80;0.00;;;;;;;3.61;79.07;98330.12;106584;1271;22533;-66
2022/02/07 03:45:45;;;;;;;2.30;0.20;;;;;;;3.57;79.24;98339.45;106411;1271;23309;-58
2022/02/07 03:48:14;;;;;;;1.40;0.10;;;;;;;3.54;79.15;98350.89;106531;1270;22561;-58
2022/02/07 03:50:42;;;;;;;1.10;0.20;;;;;;;3.51;78.99;98353.80;106403;1271;25274;-60
2022/02/07 03:53:11;;;;;;;3.60;0.30;;;;;;;3.50;78.84;98350.98;106367;1270;25383;-58
2022/02/07 03:55:40;;;;;;;1.80;0.30;;;;;;;3.48;78.82;98363.30;106408;1270;22574;-59
2022/02/07 03:58:08;;;;;;;8.30;1.10;;;;;;;3.45;78.65;98373.95;106705;1270;22539;-59
2022/02/07 04:00:37;;;;;;;7.90;0.60;;;;;;;3.44;78.73;98381.81;106312;1271;23783;-58
2022/02/07 04:03:09;;;;;;;3.10;0.30;;;;;;;3.44;78.79;98382.91;106541;1270;24248;-60
2022/02/07 04:05:45;;;;;;;2.50;0.30;;;;;;;3.44;78.82;98391.64;106628;1271;25670;-57
2022/02/07 04:08:16;;;;;;;2.50;0.20;;;;;;;3.44;78.80;98391.85;106499;1270;22688;-59
2022/02/07 04:10:55;;;;;;;;;;;;;;;3.46;78.90;98396.84;106504;1270;23977;-58
2022/02/07 04:13:26;;;;;;;4.40;0.20;;;;;;;3.44;78.53;98409.20;106245;1270;24170;-59
2022/02/07 04:15:56;;;;;;;3.90;0.10;;;;;;;3.44;78.18;98406.79;107044;1271;22725;-59
2022/02/07 04:18:29;;;;;;;4.00;0.20;;;;;;;3.44;78.02;98406.53;106931;1270;22595;-60
2022/02/07 04:20:58;;;;;;;2.60;0.20;;;;;;;3.43;77.80;98417.36;106285;1270;25603;-63
2022/02/07 04:23:26;;;;;;;2.00;0.30;;;;;;;3.44;77.61;98421.38;106566;1270;24188;-59
2022/02/07 04:25:55;;;;;;;2.40;0.20;;;;;;;3.44;77.75;98423.70;106344;1270;25353;-58
2022/02/07 04:28:23;;;;;;;2.10;0.20;;;;;;;3.44;77.90;98430.27;106451;1270;24397;-59
2022/02/07 04:30:51;;;;;;;2.90;0.20;;;;;;;3.43;78.03;98436.83;106353;1270;22661;-59
2022/02/07 04:33:20;;;;;;;6.10;0.50;;;;;;;3.43;78.05;98438.27;106437;1271;25275;-58
2022/02/07 04:35:48;;;;;;;2.80;0.50;;;;;;;3.43;78.08;98442.69;106389;1270;24821;-60
2022/02/07 04:38:16;;;;;;;2.00;0.30;;;;;;;3.43;78.04;98456.48;106456;1270;22594;-61
2022/02/07 04:40:46;;;;;;;2.80;0.20;;;;;;;3.44;77.84;98453.69;106370;1270;25530;-60
2022/02/07 04:43:16;;;;;;;1.90;0.20;;;;;;;3.44;77.55;98471.38;106473;1270;22535;-63
2022/02/07 04:45:55;;;;;;;;;;;;;;;3.44;77.41;98475.41;106437;1268;22529;-60
2022/02/07 04:48:56;;;;;;;1.60;0.10;;;;;;;3.43;77.60;98483.80;106391;1274;24211;-58
2022/02/07 04:51:47;;;;;;;4.30;0.20;;;;;;;3.41;77.86;98493.30;106382;1270;22645;-58
2022/02/07 04:54:32;;;;;;;2.20;0.30;;;;;;;3.37;78.28;98503.85;106532;1270;25268;-59
2022/02/07 04:59:53;;;;;;;1.40;0.20;;;;;;;3.26;78.00;98510.77;106017;1276;22592;-59
2022/02/07 05:02:27;;;;;;;2.20;0.20;;;;;;;3.24;77.66;98517.98;105935;1276;25271;-61
2022/02/07 05:05:06;;;;;;;1.00;0.30;;;;;;;3.22;77.42;98519.31;106106;1276;22676;-59
2022/02/07 05:16:04;;;;;;;1.20;0.20;;;;;;;3.18;75.94;98539.14;105727;1281;26528;-59
2022/02/07 05:18:33;;;;;;;2.70;0.30;;;;;;;3.17;75.44;98548.88;105811;1281;22508;-59
2022/02/07 05:21:01;;;;;;;2.10;0.10;;;;;;;3.15;75.01;98551.66;105706;1281;27815;-59
2022/02/07 05:23:29;;;;;;;4.40;0.20;;;;;;;3.12;75.42;98555.69;105714;1281;22820;-59
2022/02/07 05:25:58;;;;;;;5.30;0.40;;;;;;;3.09;75.33;98565.27;105580;1280;23096;-60
2022/02/07 05:28:26;;;;;;;2.80;0.20;;;;;;;3.08;76.11;98571.39;105669;1281;25503;-57
2022/02/07 05:30:55;;;;;;;2.50;0.50;;;;;;;3.06;75.76;98575.42;105501;1282;22672;-62
2022/02/07 05:33:23;;;;;;;3.20;0.40;;;;;;;3.04;75.72;98582.20;105642;1281;24270;-58
2022/02/07 05:35:51;;;;;;;1.60;0.20;;;;;;;3.04;75.06;98590.60;105647;1281;22734;-60
2022/02/07 05:38:20;;;;;;;2.10;0.30;;;;;;;3.04;74.86;98598.17;105954;1277;27443;-59
2022/02/07 05:40:54;;;;;;;3.10;0.20;;;;;;;3.02;74.02;98609.05;106029;1275;25379;-59
2022/02/07 05:43:22;;;;;;;4.10;0.20;;;;;;;3.00;73.57;98615.92;105953;1277;25384;-60
2022/02/07 05:45:52;;;;;;;2.50;0.20;;;;;;;2.98;73.35;98621.60;106314;1271;22539;-58
2022/02/07 05:48:20;;;;;;;3.40;0.20;;;;;;;2.97;73.60;98631.16;106516;1271;22672;-59
2022/02/07 05:50:49;;;;;;;3.00;0.20;;;;;;;2.97;73.38;98647.34;106356;1271;22713;-58
2022/02/07 05:53:18;;;;;;;2.10;0.30;;;;;;;2.96;73.53;98660.94;106327;1271;22541;-57
2022/02/07 05:55:46;;;;;;;2.90;0.10;;;;;;;2.94;73.38;98682.04;106388;1271;22787;-59
2022/02/07 05:58:14;;;;;;;1.20;0.10;;;;;;;2.91;73.99;98690.74;106378;1271;25382;-59
2022/02/07 06:00:43;;;;;;;2.40;0.20;;;;;;;2.89;74.20;98702.77;106529;1271;25389;-60
2022/02/07 06:03:11;;;;;;;1.50;0.10;;;;;;;2.83;74.22;98720.17;106420;1271;22687;-58
2022/02/07 06:05:40;;;;;;;1.30;0.20;;;;;;;2.80;74.44;98715.05;106272;1271;22706;-59
2022/02/07 06:08:08;;;;;;;1.30;0.10;;;;;;;2.78;74.61;98718.44;106391;1271;23009;-59
2022/02/07 06:10:37;;;;;;;3.50;0.30;;;;;;;2.76;74.56;98735.86;106343;1271;24199;-59
2022/02/07 06:13:11;;;;;;;0.50;0.00;;;;;;;2.72;74.77;98747.14;106466;1271;25305;-59
2022/02/07 06:15:39;;;;;;;3.40;0.10;;;;;;;2.68;74.83;98747.55;106371;1271;25402;-59
2022/02/07 06:18:07;;;;;;;0.50;0.10;;;;;;;2.65;75.05;98759.07;106448;1271;25937;-59
2022/02/07 06:20:37;;;;;;;1.90;0.20;;;;;;;2.61;75.33;98774.30;106447;1271;22553;-59
2022/02/07 06:23:05;;;;;;;2.30;0.20;;;;;;;2.56;75.33;98772.96;106497;1271;22529;-58
2022/02/07 06:25:34;;;;;;;2.00;0.20;;;;;;;2.54;75.59;98779.77;106402;1270;25396;-59
2022/02/07 06:28:02;;;;;;;3.60;0.30;;;;;;;2.52;75.50;98789.59;106305;1271;22707;-60
2022/02/07 06:30:31;;;;;;;2.50;0.30;;;;;;;2.52;75.57;98796.70;106337;1270;22844;-61
2022/02/07 06:32:59;;;;;;;2.60;0.20;;;;;;;2.51;75.65;98807.82;106343;1271;25412;-56
2022/02/07 06:35:28;;;;;;;3.20;0.20;;;;;;;2.50;75.78;98812.52;106190;1271;23938;-58
2022/02/07 06:37:56;;;;;;;2.40;0.40;;;;;;;2.49;75.83;98817.59;106491;1271;22471;-58
2022/02/07 06:40:25;;;;;;;0.90;0.20;;;;;;;2.47;75.93;98829.95;106110;1271;24793;-60
2022/02/07 06:42:54;;;;;;;3.70;0.20;;;;;;;2.46;76.02;98834.40;107868;1270;24225;-57
2022/02/07 06:45:23;;;;;;;4.10;0.10;;;;;;;2.45;76.03;98841.50;106466;1271;22663;-58
2022/02/07 06:47:51;;;;;;;2.20;0.10;;;;;;;2.44;75.98;98847.83;106190;1271;22558;-59
2022/02/07 06:50:19;;;;;;;5.10;0.30;;;;;;;2.44;76.03;98852.23;106384;1271;22525;-56
2022/02/07 06:52:48;;;;;;;2.30;0.50;;;;;;;2.44;75.98;98855.18;106391;1271;22535;-58
2022/02/07 06:55:16;;;;;;;3.00;0.20;;;;;;;2.43;76.13;98860.86;107121;1271;25334;-57
2022/02/07 06:57:45;;;;;;;2.80;0.30;;;;;;;2.43;76.21;98866.46;106765;1271;22556;-59
2022/02/07 07:00:17;;;;;;;1.80;0.30;;;;;;;2.43;76.26;98872.84;106244;1271;23033;-59
2022/02/07 07:02:48;;;;;;;1.50;0.20;;;;;;;2.43;76.49;98882.39;106289;1271;25862;-59
2022/02/07 07:05:23;;;;;;;5.20;0.50;;;;;;;2.41;76.61;98887.83;106569;1271;25535;-59
2022/02/07 07:07:51;;;;;;;2.10;0.30;;;;;;;2.37;76.69;98894.12;106237;1271;22615;-61
2022/02/07 07:10:20;;;;;;;2.80;0.30;;;;;;;2.35;76.47;98900.17;106364;1271;22544;-61
2022/02/07 07:12:57;;;;;;;2.00;0.40;;;;;;;2.34;76.41;98908.77;106344;1271;22601;-59
2022/02/07 07:15:30;;;;;;;2.00;0.20;;;;;;;2.35;76.44;98915.30;106326;1271;22535;-58
2022/02/07 07:17:58;;;;;;;5.90;0.50;;;;;;;2.35;76.47;98924.56;106525;1271;22545;-59
2022/02/07 07:20:27;;;;;;;2.30;0.10;;;;;;;2.36;76.54;98928.45;106101;1271;22535;-58
2022/02/07 07:22:58;;;;;;;3.40;0.40;;;;;;;2.38;76.56;98932.05;106411;1271;22990;-59
2022/02/07 07:25:29;;;;;;;2.00;0.30;;;;;;;2.40;76.47;98931.62;106210;1271;22556;-59
2022/02/07 07:28:01;;;;;;;0.90;0.20;;;;;;;2.42;76.31;98946.92;106334;1271;22481;-61
2022/02/07 07:30:34;;;;;;;1.50;0.10;;;;;;;2.45;76.24;98959.08;106415;1271;22566;-59
2022/02/07 07:33:06;;;;;;;2.00;0.20;;;;;;;2.47;76.49;98968.69;106375;1271;22577;-60
2022/02/07 07:35:35;;;;;;;1.50;0.20;;;;;;;2.46;76.98;98979.04;106337;1271;25459;-59
2022/02/07 07:38:03;;;;;;;4.20;0.20;;;;;;;2.44;76.85;98983.59;106263;1271;22540;-61
2022/02/07 07:40:33;;;;;;;5.10;0.40;;;;;;;2.43;77.04;98983.32;106403;1271;24312;-58
2022/02/07 07:43:03;;;;;;;2.40;0.20;;;;;;;2.43;77.23;98991.27;106183;1274;22567;-59
2022/02/07 07:45:35;;;;;;;2.30;0.20;;;;;;;2.41;77.83;98998.20;106437;1271;24231;-60
2022/02/07 07:48:10;;;;;;;3.60;0.20;;;;;;;2.37;78.20;99003.02;106659;1271;23237;-61
2022/02/07 07:50:47;;;;;;;2.50;0.20;;;;;;;2.33;78.47;99006.86;106349;1271;22697;-60
2022/02/07 07:53:24;;;;;;;3.50;0.40;;;;;;;2.30;79.03;99018.45;106236;1271;22704;-59
2022/02/07 08:01:40;;;;;;;3.00;0.40;;;;;;;2.12;79.52;99045.20;106194;1271;23849;-58
2022/02/07 08:04:12;;;;;;;2.50;0.20;;;;;;;2.06;79.67;99053.25;106153;1271;25226;-58
2022/02/07 08:06:46;;;;;;;2.70;0.40;;;;;;;2.03;79.96;99061.66;106292;1271;24104;-59
2022/02/07 08:12:02;;;;;;;7.80;0.40;;;;;;;2.04;79.90;99076.84;106163;1271;24235;-60
2022/02/07 08:14:34;;;;;;;;;;;;;;;2.06;80.04;99087.05;106464;1271;25436;-59
2022/02/07 08:17:05;;;;;;;2.20;0.30;;;;;;;2.09;79.99;99094.48;106203;1271;22557;-59
2022/02/07 08:19:34;;;;;;;4.00;0.40;;;;;;;2.10;80.02;99104.09;106269;1271;23068;-60
2022/02/07 08:22:03;;;;;;;4.30;0.50;;;;;;;2.13;79.91;99109.44;106120;1271;24201;-58
2022/02/07 08:24:32;;;;;;;2.80;0.40;;;;;;;2.16;80.18;99121.02;106395;1271;22541;-59
2022/02/07 08:27:00;;;;;;;6.80;0.60;;;;;;;2.15;80.42;99128.54;106149;1271;25866;-59
2022/02/07 08:29:29;;;;;;;3.90;0.60;;;;;;;2.14;80.30;99128.52;106216;1271;22502;-58
2022/02/07 08:31:58;;;;;;;4.50;0.40;;;;;;;2.12;80.48;99135.49;106235;1271;22481;-60
2022/02/07 08:34:27;;;;;;;3.80;0.40;;;;;;;2.12;80.59;99142.52;106159;1271;22769;-58
2022/02/07 08:36:58;;;;;;;6.10;0.60;;;;;;;2.13;80.48;99151.89;106226;1271;25376;-58
2022/02/07 08:39:25;;;;;;;;;;;;;;;2.17;80.75;99159.85;106147;1271;22554;-56
2022/02/07 08:41:54;;;;;;;1.60;0.30;;;;;;;2.21;80.61;99160.43;106335;1271;25394;-58
2022/02/07 08:44:23;;;;;;;1.50;0.30;;;;;;;2.24;80.53;99167.48;106160;1271;22556;-56
2022/02/07 08:46:51;;;;;;;3.10;0.30;;;;;;;2.27;80.56;99164.55;106081;1271;22677;-58
2022/02/07 08:49:19;;;;;;;3.00;0.40;;;;;;;2.30;80.36;99173.23;106104;1271;23058;-58
2022/02/07 08:51:49;;;;;;;2.80;0.50;;;;;;;2.38;80.55;99176.09;106213;1271;24170;-59
2022/02/07 08:54:22;;;;;;;2.20;0.30;;;;;;;2.48;80.64;99191.45;106183;1271;22580;-59
2022/02/07 08:56:55;;;;;;;2.10;0.20;;;;;;;2.51;80.90;99197.59;106082;1271;22481;-58
2022/02/07 08:59:33;;;;;;;4.60;0.50;;;;;;;2.45;81.01;99194.50;106195;1271;22551;-57
2022/02/07 09:02:18;;;;;;;4.40;0.50;;;;;;;2.41;80.97;99206.20;106056;1270;22532;-60
2022/02/07 09:04:55;;;;;;;5.70;0.30;;;;;;;2.36;80.78;99207.94;106113;1271;26483;-58
2022/02/07 09:07:30;;;;;;;3.40;0.30;;;;;;;2.34;81.32;99208.73;106290;1271;24570;-59
2022/02/07 09:09:58;;;;;;;3.80;0.90;;;;;;;2.30;81.41;99214.16;106224;1271;26603;-59
2022/02/07 09:12:27;;;;;;;2.10;0.40;;;;;;;2.23;81.43;99222.35;106189;1271;24322;-59
2022/02/07 09:14:59;;;;;;;6.10;0.60;;;;;;;2.17;81.39;99230.48;106240;1271;24364;-60
2022/02/07 09:17:28;;;;;;;4.30;0.60;;;;;;;2.17;81.76;99231.78;106863;1271;25258;-58
2022/02/07 09:19:57;;;;;;;3.10;0.80;;;;;;;2.19;82.10;99237.52;106282;1271;23429;-59
2022/02/07 09:22:27;;;;;;;6.80;1.00;;;;;;;2.16;82.17;99237.21;106433;1271;22540;-61
2022/02/07 09:24:55;;;;;;;3.30;0.40;;;;;;;2.06;81.96;99253.34;106474;1271;25238;-61
2022/02/07 09:27:24;;;;;;;2.60;0.40;;;;;;;1.96;82.19;99254.63;106224;1271;22487;-61
2022/02/07 09:29:53;;;;;;;2.00;0.40;;;;;;;1.86;82.24;99263.59;106347;1271;22748;-59
2022/02/07 09:32:22;;;;;;;4.10;0.40;;;;;;;1.82;82.90;99275.42;106615;1271;335111;-55
2022/02/07 09:34:51;;;;;;;5.10;0.50;;;;;;;1.85;83.37;99279.90;107431;1271;25264;-59
2022/02/07 09:37:19;;;;;;;5.00;0.50;;;;;;;1.92;83.72;99289.66;106640;1271;23740;-59
2022/02/07 09:39:48;;;;;;;3.00;0.30;;;;;;;1.97;83.65;99293.10;106207;1271;26543;-60
2022/02/07 09:42:18;;;;;;;4.30;0.40;;;;;;;2.02;84.05;99311.36;106412;1271;22550;-57
2022/02/07 09:44:53;;;;;;;3.70;0.40;;;;;;;2.05;83.79;99306.70;106442;1271;24264;-57
2022/02/07 09:47:23;;;;;;;2.50;0.40;;;;;;;2.09;83.69;99308.18;106230;1271;26549;-59
2022/02/07 09:49:51;;;;;;;3.10;0.50;;;;;;;2.13;83.38;99313.41;106130;1271;22581;-59
2022/02/07 09:52:20;;;;;;;6.90;0.50;;;;;;;2.17;83.29;99319.11;106174;1271;24243;-59
2022/02/07 09:54:48;;;;;;;3.60;0.50;;;;;;;2.23;83.41;99332.83;106496;1271;23838;-58
2022/02/07 09:57:20;;;;;;;3.90;0.40;;;;;;;2.31;83.61;99338.98;106285;1270;24054;-58
2022/02/07 09:59:50;;;;;;;1.70;0.30;;;;;;;2.40;83.93;99341.04;106224;1271;25417;-58
2022/02/07 10:02:26;;;;;;;3.50;0.50;;;;;;;2.48;83.95;99350.14;106099;1271;22544;-57
2022/02/07 10:04:56;;;;;;;4.30;0.40;;;;;;;2.56;83.49;99350.27;106198;1271;22493;-59
2022/02/07 10:07:34;;;;;;;2.60;0.40;;;;;;;2.62;83.49;99354.88;106331;1271;22748;-58
2022/02/07 10:10:19;;;;;;;3.00;0.40;;;;;;;2.61;82.80;99360.07;106028;1271;22700;-58
2022/02/07 10:13:17;;;;;;;3.80;0.40;;;;;;;2.61;83.14;99371.84;106231;1270;22546;-58
2022/02/07 10:15:51;;;;;;;2.50;0.50;;;;;;;2.62;83.09;99371.16;106027;1271;24230;-58
2022/02/07 10:18:37;;;;;;;6.50;0.80;;;;;;;2.61;83.05;99375.36;106269;1271;25276;-58
2022/02/07 10:35:42;;;;;;;6.00;0.70;;;;;;;2.86;82.49;99382.05;105998;1274;23319;-60
2022/02/07 10:38:22;;;;;;;3.50;0.70;;;;;;;2.92;82.14;99381.42;106045;1270;22539;-59
2022/02/07 10:41:17;;;;;;;4.00;0.60;;;;;;;2.97;81.72;99387.71;106005;1271;22545;-58
2022/02/07 10:43:59;;;;;;;7.30;0.40;;;;;;;3.02;81.45;99400.77;106094;1271;25270;-58
2022/02/07 10:46:33;;;;;;;2.90;0.30;;;;;;;2.99;80.83;99402.38;106059;1271;22573;-59
2022/02/07 10:49:08;;;;;;;6.20;0.50;;;;;;;2.92;81.12;99402.52;106204;1271;22611;-58
2022/02/07 10:51:40;;;;;;;4.60;0.50;;;;;;;2.87;81.61;99403.75;106260;1271;25082;-58
2022/02/07 10:54:11;;;;;;;4.20;0.40;;;;;;;2.87;81.94;99401.16;106160;1271;22554;-59
2022/02/07 10:56:44;;;;;;;6.50;1.00;;;;;;;2.88;81.98;99406.71;106232;1270;22555;-59
2022/02/07 10:59:15;;;;;;;7.90;0.90;;;;;;;2.91;81.82;99403.44;106126;1271;25392;-60
2022/02/07 11:04:32;;;;;;;7.10;0.70;;;;;;;3.02;80.42;99413.11;105629;1277;22534;-61
2022/02/07 11:07:02;;;;;;;7.90;0.80;;;;;;;3.11;81.00;99411.71;105801;1276;24342;-60
2022/02/07 11:09:38;;;;;;;4.00;0.70;;;;;;;3.19;79.99;99413.07;106193;1276;25505;-59
2022/02/07 11:12:20;;;;;;;8.00;1.00;;;;;;;3.30;80.35;99428.91;105892;1276;24247;-58
2022/02/07 11:15:01;;;;;;;6.40;0.80;;;;;;;3.39;78.92;99433.00;105675;1276;22626;-60
2022/02/07 11:17:46;;;;;;;4.70;1.00;;;;;;;3.44;79.36;99451.27;105841;1276;24222;-58
2022/02/07 11:23:24;;;;;;;6.10;0.40;;;;;;;3.27;78.70;99469.27;105391;1281;24430;-59
2022/02/07 11:26:01;;;;;;;5.60;0.40;;;;;;;3.24;79.49;99462.22;105409;1281;22582;-60
2022/02/07 11:28:39;;;;;;;5.20;0.50;;;;;;;3.24;79.74;99465.29;105288;1281;24149;-59
2022/02/07 11:31:08;;;;;;;7.20;0.50;;;;;;;3.24;79.56;99473.34;105522;1281;25296;-60
2022/02/07 11:33:53;;;;;;;4.20;0.70;;;;;;;3.25;78.41;99469.13;105329;1281;22713;-60
2022/02/07 11:36:34;;;;;;;5.40;0.60;;;;;;;3.33;78.88;99467.75;105467;1281;22661;-60
2022/02/07 11:39:07;;;;;;;4.90;0.70;;;;;;;3.42;78.23;99469.70;105551;1281;22765;-59
2022/02/07 11:42:05;;;;;;;4.90;0.60;;;;;;;3.45;77.39;99464.00;105553;1280;22585;-60
2022/02/07 11:45:21;;;;;;;11.80;0.60;;;;;;;3.49;77.03;99473.17;105837;1276;22925;-60
2022/02/07 11:47:50;;;;;;;4.40;0.70;;;;;;;3.52;76.69;99470.52;105665;1276;22556;-61
2022/02/07 11:50:24;;;;;;;4.10;0.40;;;;;;;3.54;76.92;99477.46;105758;1276;22553;-60
2022/02/07 11:52:55;;;;;;;9.50;1.60;;;;;;;3.58;76.82;99484.27;106010;1276;22556;-60
2022/02/07 11:55:31;;;;;;;13.10;2.70;;;;;;;3.60;76.71;99487.26;105773;1276;26104;-58
2022/02/07 11:58:07;;;;;;;7.50;1.10;;;;;;;3.65;76.21;99490.99;106170;1276;25293;-60
2022/02/07 12:00:44;;;;;;;5.50;0.50;;;;;;;3.69;76.44;99502.92;106236;1271;25686;-58
2022/02/07 12:03:15;;;;;;;3.20;0.50;;;;;;;3.72;76.07;99511.71;106069;1273;22681;-58
2022/02/07 12:05:46;;;;;;;5.80;0.60;;;;;;;3.74;75.66;99515.53;106316;1270;25253;-59
2022/02/07 12:08:19;;;;;;;3.90;0.50;;;;;;;3.74;75.64;99533.02;106471;1270;26662;-57
2022/02/07 12:11:05;;;;;;;4.10;0.30;;;;;;;3.74;75.54;99537.13;106226;1270;22554;-58
2022/02/07 12:13:38;;;;;;;2.60;0.20;;;;;;;3.73;75.42;99547.27;106341;1270;25881;-59
2022/02/07 12:16:13;;;;;;;6.60;0.40;;;;;;;3.70;75.82;99542.50;106216;1271;23889;-62
2022/02/07 12:18:42;;;;;;;3.40;0.30;;;;;;;3.70;75.79;99546.83;106306;1270;22574;-59
2022/02/07 12:21:19;;;;;;;6.20;0.40;;;;;;;3.68;74.33;99568.19;107390;1270;22556;-61
2022/02/07 12:23:57;;;;;;;5.40;0.40;;;;;;;3.64;75.31;99558.40;106669;1271;25395;-59
2022/02/07 12:26:25;;;;;;;6.60;0.70;;;;;;;3.63;74.89;99570.90;106432;1270;22548;-59
2022/02/07 12:28:58;;;;;;;4.40;0.30;;;;;;;3.62;75.36;99573.13;106303;1271;23114;-59
2022/02/07 12:31:28;;;;;;;8.60;0.60;;;;;;;3.61;74.96;99578.27;106378;1270;22561;-59
2022/02/07 12:33:59;;;;;;;4.10;0.60;;;;;;;3.60;75.77;99577.38;106377;1270;22547;-61
2022/02/07 12:36:29;;;;;;;4.40;0.80;;;;;;;3.61;75.86;99583.02;106413;1271;24258;-58
2022/02/07 12:39:01;;;;;;;3.30;0.50;;;;;;;3.63;76.37;99584.55;106499;1270;22535;-59
2022/02/07 12:41:33;;;;;;;6.50;0.50;;;;;;;3.65;75.83;99585.55;106375;1271;23197;-60
2022/02/07 12:44:03;;;;;;;8.90;0.70;;;;;;;3.66;75.71;99582.92;106360;1270;25349;-59
2022/02/07 12:46:33;;;;;;;6.00;0.60;;;;;;;3.68;75.61;99586.41;106258;1270;23543;-60
2022/02/07 12:49:11;;;;;;;5.40;0.50;;;;;;;3.70;75.96;99586.71;106307;1270;25362;-59
2022/02/07 12:51:46;;;;;;;5.10;0.70;;;;;;;3.74;75.66;99591.79;106198;1270;22559;-60
2022/02/07 12:54:18;;;;;;;4.70;0.60;;;;;;;3.77;75.80;99588.29;106390;1270;25553;-60
2022/02/07 12:56:48;;;;;;;7.30;0.70;;;;;;;3.81;76.10;99588.84;106378;1271;24279;-58
2022/02/07 12:59:16;;;;;;;;;;;;;;;3.86;76.07;99585.75;106318;1271;24183;-59
2022/02/07 13:01:46;;;;;;;4.90;0.70;;;;;;;3.92;76.11;99590.35;106284;1270;22574;-59
2022/02/07 13:04:19;;;;;;;8.40;0.80;;;;;;;3.98;75.91;99594.05;106344;1270;22553;-59
2022/02/07 13:06:49;;;;;;;6.20;0.60;;;;;;;4.04;75.33;99601.73;106354;1270;22558;-60
2022/02/07 13:09:23;;;;;;;6.90;0.60;;;;;;;4.06;74.86;99607.52;106511;1270;22997;-60
2022/02/07 13:12:06;;;;;;;4.80;0.50;;;;;;;4.05;74.90;99608.01;106800;1271;22495;-59
2022/02/07 13:14:38;;;;;;;3.80;0.70;;;;;;;4.04;75.04;99627.45;106217;1270;25957;-59
2022/02/07 13:17:07;;;;;;;5.20;0.60;;;;;;;3.98;76.13;99645.52;106374;1271;22534;-59
2022/02/07 13:19:40;;;;;;;3.70;0.40;;;;;;;3.79;77.76;99685.16;106230;1270;24265;-60
2022/02/07 13:22:10;;;;;;;3.60;0.30;;;;;;;3.40;79.29;99692.77;106409;1270;22573;-60
2022/02/07 13:24:40;;;;;;;4.60;0.60;;;;;;;3.04;79.78;99714.25;106501;1270;22555;-61
2022/02/07 13:27:11;;;;;;;6.10;0.50;;;;;;;2.78;80.08;99707.80;106402;1271;23977;-61
2022/02/07 13:29:44;;;;;;;;;;;;;;;2.53;80.12;99694.36;106526;1270;22636;-58
2022/02/07 13:32:14;;;;;;;4.60;0.50;;;;;;;2.36;80.72;99690.20;106117;1271;26600;-58
2022/02/07 13:34:44;;;;;;;2.30;0.40;;;;;;;2.30;80.77;99693.45;106294;1271;24241;-57
2022/02/07 13:37:16;;;;;;;7.10;1.00;;;;;;;2.31;81.21;99703.82;106047;1270;24919;-58